Time;durP1;ratioP1;P1;durP2;ratioP2;P2;SDS_P1;SDS_P2;PMS_P1;PMS_P2;Temp;Humidity;BMP_temperature;BMP_pressure;BME280_temperature;BME280_humidity;BME280_pressure;Samples;Min_cycle;Max_cycle;Signal;HPM_P1;HPM_P2
2022/04/10 00:01:30;;;;;;;4.13;2.50;;;4.50;99.90;;;;;;5055111;28;20323;-68
2022/04/10 00:03:58;;;;;;;3.10;2.70;;;4.50;99.90;;;;;;5049134;28;20226;-69
2022/04/10 00:06:25;;;;;;;4.03;2.57;;;4.50;99.90;;;;;;5050442;28;20270;-69
2022/04/10 00:08:52;;;;;;;5.93;2.80;;;4.40;99.90;;;;;;5054140;28;20269;-68
2022/04/10 00:11:19;;;;;;;4.77;2.77;;;4.40;99.90;;;;;;5055113;28;20210;-68
2022/04/10 00:13:46;;;;;;;3.00;2.37;;;4.40;99.90;;;;;;5054003;28;20202;-69
2022/04/10 00:16:13;;;;;;;5.37;2.53;;;4.40;99.90;;;;;;5050336;28;20256;-69
2022/04/10 00:18:40;;;;;;;3.63;2.40;;;4.30;99.90;;;;;;5054247;28;20284;-68
2022/04/10 00:21:08;;;;;;;5.33;3.00;;;4.30;99.90;;;;;;5051734;28;20225;-68
2022/04/10 00:23:36;;;;;;;3.97;2.63;;;4.30;99.90;;;;;;5053142;28;20233;-68
2022/04/10 00:26:02;;;;;;;4.60;2.83;;;4.30;99.90;;;;;;5049536;28;20212;-69
2022/04/10 00:28:29;;;;;;;6.47;2.57;;;4.20;99.90;;;;;;5053815;28;20202;-69
2022/04/10 00:30:56;;;;;;;4.87;2.90;;;4.20;99.90;;;;;;5051693;28;20228;-68
2022/04/10 00:33:23;;;;;;;6.07;2.77;;;4.10;99.90;;;;;;5051346;28;20331;-68
2022/04/10 00:35:50;;;;;;;5.53;2.47;;;4.10;99.90;;;;;;5051469;28;20210;-68
2022/04/10 00:38:20;;;;;;;4.90;3.07;;;4.10;99.90;;;;;;5055785;28;20765;-69
2022/04/10 00:40:47;;;;;;;3.90;2.67;;;4.00;99.90;;;;;;5066312;28;20220;-68
2022/04/10 00:43:15;;;;;;;5.93;2.73;;;4.00;99.90;;;;;;5047939;28;20260;-68
2022/04/10 00:45:42;;;;;;;6.47;2.97;;;4.00;99.90;;;;;;5051940;28;20206;-68
2022/04/10 00:48:10;;;;;;;4.80;2.67;;;4.00;99.90;;;;;;5053847;28;20240;-67
2022/04/10 00:51:39;;;;;;;4.90;2.97;;;4.00;99.90;;;;;;5054463;28;20244;-68
2022/04/10 00:53:27;;;;;;;5.00;3.07;;;4.00;99.90;;;;;;5053601;28;20206;-68
2022/04/10 00:55:54;;;;;;;4.30;2.50;;;4.00;99.90;;;;;;5052842;28;20653;-68
2022/04/10 00:58:21;;;;;;;5.40;2.90;;;4.00;99.90;;;;;;5047917;28;20241;-68
2022/04/10 01:00:48;;;;;;;4.80;2.67;;;4.00;99.90;;;;;;5052943;28;20302;-68
2022/04/10 01:03:15;;;;;;;4.03;2.50;;;4.00;99.90;;;;;;5053435;28;20248;-68
2022/04/10 01:05:43;;;;;;;5.83;3.03;;;3.90;99.90;;;;;;5054916;28;20206;-68
2022/04/10 01:08:10;;;;;;;4.93;2.50;;;3.90;99.90;;;;;;5052255;28;20201;-68
2022/04/10 01:10:38;;;;;;;4.80;2.53;;;3.90;99.90;;;;;;5053357;28;20216;-69
2022/04/10 01:13:05;;;;;;;4.17;2.37;;;3.90;99.90;;;;;;5054055;28;20201;-69
2022/04/10 01:15:32;;;;;;;4.47;2.83;;;3.90;99.90;;;;;;5054504;28;20228;-69
2022/04/10 01:17:59;;;;;;;4.17;2.70;;;3.90;99.90;;;;;;5040334;28;20577;-67
2022/04/10 01:20:27;;;;;;;3.83;2.63;;;3.80;99.90;;;;;;5054559;28;20216;-67
2022/04/10 01:22:55;;;;;;;5.27;2.70;;;3.80;99.90;;;;;;5052939;28;20202;-67
2022/04/10 01:25:22;;;;;;;5.00;2.80;;;3.80;99.90;;;;;;5046881;28;20293;-68
2022/04/10 01:27:49;;;;;;;4.33;2.70;;;3.80;99.90;;;;;;5051803;28;20563;-68
2022/04/10 01:30:16;;;;;;;4.87;2.53;;;3.70;99.90;;;;;;5053613;28;20746;-68
2022/04/10 01:32:43;;;;;;;3.83;2.50;;;3.70;99.90;;;;;;5050120;28;20275;-69
2022/04/10 01:35:10;;;;;;;3.40;2.47;;;3.70;99.90;;;;;;5053813;28;20194;-68
2022/04/10 01:37:38;;;;;;;3.87;2.70;;;3.60;99.90;;;;;;5053475;28;20213;-68
2022/04/10 01:40:07;;;;;;;7.23;2.40;;;3.60;99.90;;;;;;5063097;28;20368;-68
2022/04/10 01:42:34;;;;;;;4.67;2.73;;;3.60;99.90;;;;;;5053760;28;20581;-68
2022/04/10 01:45:00;;;;;;;3.90;2.83;;;3.60;99.90;;;;;;5053576;28;20250;-68
2022/04/10 01:47:27;;;;;;;5.80;2.97;;;3.60;99.90;;;;;;5057985;28;20239;-68
2022/04/10 01:49:54;;;;;;;4.87;2.50;;;3.50;99.90;;;;;;5055735;28;20270;-68
2022/04/10 01:52:21;;;;;;;5.67;2.47;;;3.50;99.90;;;;;;5056452;28;20217;-68
2022/04/10 01:54:48;;;;;;;6.17;2.93;;;3.50;99.90;;;;;;5056650;28;20584;-68
2022/04/10 01:57:16;;;;;;;4.90;2.70;;;3.50;99.90;;;;;;5053997;28;20655;-68
2022/04/10 01:59:43;;;;;;;5.90;2.50;;;3.50;99.90;;;;;;5056494;28;20650;-68
2022/04/10 02:02:10;;;;;;;4.07;2.60;;;3.50;99.90;;;;;;5056243;28;20224;-68
2022/04/10 02:04:37;;;;;;;6.80;2.80;;;3.40;99.90;;;;;;5056722;28;20229;-67
2022/04/10 02:07:04;;;;;;;5.27;2.40;;;3.40;99.90;;;;;;5059768;28;20301;-68
2022/04/10 02:09:31;;;;;;;4.43;2.77;;;3.40;99.90;;;;;;5055891;28;20198;-67
2022/04/10 02:11:58;;;;;;;4.50;2.80;;;3.40;99.90;;;;;;5056074;28;20229;-67
2022/04/10 02:14:26;;;;;;;4.40;2.90;;;3.40;99.90;;;;;;5056559;28;20194;-68
2022/04/10 02:16:53;;;;;;;3.87;2.57;;;3.40;99.90;;;;;;5055866;28;20237;-69
2022/04/10 02:19:20;;;;;;;5.07;2.53;;;3.40;99.90;;;;;;5056263;28;20205;-68
2022/04/10 02:21:46;;;;;;;7.40;2.60;;;3.40;99.90;;;;;;5055354;28;20235;-67
2022/04/10 02:24:13;;;;;;;3.73;2.47;;;3.40;99.90;;;;;;5056600;28;20290;-68
2022/04/10 02:26:40;;;;;;;4.53;2.30;;;3.30;99.90;;;;;;5055787;28;20663;-68
2022/04/10 02:29:07;;;;;;;3.90;2.20;;;3.30;99.90;;;;;;5056261;28;20206;-68
2022/04/10 02:31:35;;;;;;;2.40;2.20;;;3.30;99.90;;;;;;5056572;28;20652;-69
2022/04/10 02:34:02;;;;;;;3.47;2.10;;;3.30;99.90;;;;;;5056301;28;20206;-68
2022/04/10 02:36:29;;;;;;;5.43;2.10;;;3.30;99.90;;;;;;5054276;28;20206;-68
2022/04/10 02:38:56;;;;;;;5.70;2.20;;;3.30;99.90;;;;;;5056470;28;20261;-68
2022/04/10 02:41:23;;;;;;;4.43;2.30;;;3.40;99.90;;;;;;5055891;28;20206;-68
2022/04/10 02:43:50;;;;;;;4.13;1.97;;;3.40;99.90;;;;;;5056165;28;20730;-69
2022/04/10 02:46:16;;;;;;;4.70;2.33;;;3.30;99.90;;;;;;5054629;28;20201;-68
2022/04/10 02:48:45;;;;;;;4.63;2.00;;;3.30;99.90;;;;;;5059057;28;20209;-69
2022/04/10 02:51:11;;;;;;;4.27;2.47;;;3.30;99.90;;;;;;5064039;28;20571;-67
2022/04/10 02:53:38;;;;;;;6.90;2.13;;;3.30;99.90;;;;;;5050448;28;20301;-67
2022/04/10 02:56:05;;;;;;;5.03;2.60;;;3.30;99.90;;;;;;5055101;28;20300;-69
2022/04/10 02:58:32;;;;;;;3.50;2.20;;;3.30;99.90;;;;;;5057644;28;20313;-68
2022/04/10 03:00:59;;;;;;;3.57;1.97;;;3.30;99.90;;;;;;5056132;28;20206;-67
2022/04/10 03:03:26;;;;;;;4.73;2.00;;;3.30;99.90;;;;;;5055246;28;20975;-68
2022/04/10 03:05:54;;;;;;;3.60;2.20;;;3.30;99.90;;;;;;5052662;28;20548;-67
2022/04/10 03:08:21;;;;;;;4.03;2.07;;;3.30;99.90;;;;;;5052037;28;20218;-65
2022/04/10 03:10:48;;;;;;;2.87;2.13;;;3.30;99.90;;;;;;5054425;28;20238;-67
2022/04/10 03:13:16;;;;;;;3.80;2.20;;;3.30;99.90;;;;;;5048143;28;20258;-67
2022/04/10 03:15:43;;;;;;;5.07;2.47;;;3.40;99.90;;;;;;5063912;28;20249;-67
2022/04/10 03:18:10;;;;;;;3.07;2.10;;;3.40;99.90;;;;;;5062977;28;20212;-68
2022/04/10 03:20:37;;;;;;;5.23;2.50;;;3.40;99.90;;;;;;5060421;28;20297;-67
2022/04/10 03:23:08;;;;;;;6.20;2.40;;;3.40;99.90;;;;;;5061436;28;20714;-67
2022/04/10 03:25:35;;;;;;;3.73;2.23;;;3.40;99.90;;;;;;5060747;28;20304;-67
2022/04/10 03:28:03;;;;;;;3.20;2.10;;;3.40;99.90;;;;;;5054619;28;20204;-67
2022/04/10 03:30:29;;;;;;;3.67;2.63;;;3.40;99.90;;;;;;5055476;28;20237;-67
2022/04/10 03:32:56;;;;;;;4.53;2.20;;;3.40;99.90;;;;;;5054413;28;20300;-68
2022/04/10 03:35:23;;;;;;;3.13;2.17;;;3.40;99.90;;;;;;5053742;28;20289;-67
2022/04/10 03:37:50;;;;;;;5.90;2.50;;;3.40;99.90;;;;;;5055840;28;20269;-67
2022/04/10 03:40:18;;;;;;;3.77;2.30;;;3.40;99.90;;;;;;5068858;28;20777;-68
2022/04/10 03:42:46;;;;;;;5.47;2.73;;;3.40;99.90;;;;;;5055065;28;20209;-67
2022/04/10 03:45:13;;;;;;;7.97;2.87;;;3.40;99.90;;;;;;5053505;28;20208;-68
2022/04/10 03:47:40;;;;;;;3.53;2.10;;;3.40;99.90;;;;;;5055051;28;20216;-67
2022/04/10 03:50:08;;;;;;;3.50;2.30;;;3.40;99.90;;;;;;5053218;28;20209;-67
2022/04/10 03:52:35;;;;;;;5.07;2.27;;;3.40;99.90;;;;;;5054609;28;20241;-67
2022/04/10 03:55:02;;;;;;;6.23;2.37;;;3.30;99.90;;;;;;5053209;28;20638;-67
2022/04/10 03:57:30;;;;;;;4.90;2.30;;;3.40;99.90;;;;;;5054549;28;20225;-67
2022/04/10 03:59:57;;;;;;;3.13;2.03;;;3.40;99.90;;;;;;5053866;28;20237;-67
2022/04/10 04:02:23;;;;;;;4.63;2.70;;;3.40;99.90;;;;;;5068456;28;20265;-68
2022/04/10 04:04:51;;;;;;;2.83;2.23;;;3.40;99.90;;;;;;5052912;28;20321;-68
2022/04/10 04:07:18;;;;;;;5.37;2.70;;;3.40;99.90;;;;;;5051233;28;20316;-68
2022/04/10 04:09:45;;;;;;;4.87;2.50;;;3.40;99.90;;;;;;5054039;28;20698;-68
2022/04/10 04:12:12;;;;;;;3.50;2.53;;;3.40;99.90;;;;;;5054834;28;20718;-67
2022/04/10 04:14:41;;;;;;;3.60;2.30;;;3.40;99.90;;;;;;5060858;28;20291;-67
2022/04/10 04:17:08;;;;;;;6.20;2.63;;;3.40;99.90;;;;;;5053894;28;20210;-67
2022/04/10 04:19:35;;;;;;;3.27;2.40;;;3.40;99.90;;;;;;5052930;28;20209;-66
2022/04/10 04:22:02;;;;;;;3.57;2.20;;;3.40;99.90;;;;;;5053206;28;20236;-66
2022/04/10 04:24:28;;;;;;;4.50;2.50;;;3.50;99.90;;;;;;5053917;28;20718;-66
2022/04/10 04:26:55;;;;;;;3.67;2.40;;;3.50;99.90;;;;;;5051601;28;20804;-67
2022/04/10 04:29:22;;;;;;;4.40;2.87;;;3.60;99.90;;;;;;5053885;28;20320;-67
2022/04/10 04:31:50;;;;;;;4.87;2.40;;;3.60;99.90;;;;;;5052442;28;20305;-67
2022/04/10 04:34:17;;;;;;;6.00;2.60;;;3.70;99.90;;;;;;5052678;28;20560;-67
2022/04/10 04:36:44;;;;;;;5.40;3.07;;;3.70;99.90;;;;;;5049266;28;20212;-67
2022/04/10 04:39:11;;;;;;;4.90;2.73;;;3.80;99.90;;;;;;5060131;28;20272;-67
2022/04/10 04:41:38;;;;;;;5.27;2.50;;;3.80;99.90;;;;;;5058997;28;20628;-66
2022/04/10 04:44:06;;;;;;;5.57;2.63;;;3.90;99.90;;;;;;5054356;28;20655;-67
2022/04/10 04:46:32;;;;;;;6.97;2.80;;;3.90;99.90;;;;;;5053838;28;20293;-66
2022/04/10 04:49:01;;;;;;;3.20;2.30;;;3.90;99.90;;;;;;5053524;28;20244;-67
2022/04/10 04:51:28;;;;;;;4.80;2.40;;;3.90;99.90;;;;;;5053880;28;20205;-66
2022/04/10 04:53:55;;;;;;;5.53;2.13;;;4.00;99.90;;;;;;5068394;28;20206;-67
2022/04/10 04:56:22;;;;;;;5.33;2.50;;;4.00;99.90;;;;;;5049696;28;20662;-67
2022/04/10 04:58:49;;;;;;;4.47;2.40;;;4.10;99.90;;;;;;5053434;28;20302;-67
2022/04/10 05:01:16;;;;;;;4.30;2.40;;;4.20;99.90;;;;;;5052403;28;20405;-67
2022/04/10 05:03:43;;;;;;;4.93;2.10;;;4.20;99.90;;;;;;5053397;28;20210;-66
2022/04/10 05:06:11;;;;;;;5.60;2.10;;;4.20;99.90;;;;;;5052729;28;20300;-67
2022/04/10 05:08:39;;;;;;;8.20;2.73;;;4.20;99.90;;;;;;5054104;28;20213;-68
2022/04/10 05:11:08;;;;;;;4.67;2.13;;;4.30;99.90;;;;;;5052913;28;20210;-67
2022/04/10 05:13:35;;;;;;;4.73;2.67;;;4.40;99.90;;;;;;5053266;28;20206;-69
2022/04/10 05:16:02;;;;;;;5.57;2.07;;;4.40;99.90;;;;;;5056551;28;20288;-67
2022/04/10 05:18:29;;;;;;;3.43;2.10;;;4.40;99.90;;;;;;5064809;28;20205;-68
2022/04/10 05:20:56;;;;;;;4.17;2.13;;;4.50;99.90;;;;;;5064267;28;20229;-68
2022/04/10 05:23:25;;;;;;;4.33;2.37;;;4.60;99.90;;;;;;5062610;28;20301;-69
2022/04/10 05:25:53;;;;;;;5.00;2.30;;;4.60;99.90;;;;;;5057204;28;20257;-68
2022/04/10 05:28:20;;;;;;;5.03;2.50;;;4.70;99.90;;;;;;5064508;28;20210;-68
2022/04/10 05:30:47;;;;;;;4.77;2.10;;;4.70;99.90;;;;;;5062421;28;20210;-68
2022/04/10 05:33:14;;;;;;;5.43;2.50;;;4.80;99.90;;;;;;5057391;28;20296;-68
2022/04/10 05:35:41;;;;;;;4.77;2.30;;;4.90;99.90;;;;;;5062268;28;20289;-67
2022/04/10 05:38:09;;;;;;;3.23;2.03;;;4.90;99.90;;;;;;5069851;28;20581;-67
2022/04/10 05:40:37;;;;;;;4.00;2.27;;;5.00;99.90;;;;;;5071707;28;20268;-68
2022/04/10 05:43:04;;;;;;;5.57;2.30;;;5.00;99.90;;;;;;5057316;28;20241;-68
2022/04/10 05:45:31;;;;;;;5.80;2.20;;;5.10;99.90;;;;;;5050492;28;20585;-70
2022/04/10 05:47:58;;;;;;;5.70;2.40;;;5.10;99.90;;;;;;5058966;28;20292;-67
2022/04/10 05:50:25;;;;;;;5.03;2.20;;;5.20;99.90;;;;;;5059577;28;20366;-67
2022/04/10 05:52:52;;;;;;;4.33;2.17;;;5.30;99.90;;;;;;5051602;28;20298;-68
2022/04/10 05:55:19;;;;;;;8.57;2.40;;;5.20;99.90;;;;;;5049847;28;20257;-68
2022/04/10 05:57:48;;;;;;;6.13;2.10;;;5.30;99.90;;;;;;5055084;28;20214;-68
2022/04/10 06:00:16;;;;;;;5.70;2.67;;;5.40;99.90;;;;;;5053225;28;20641;-68
2022/04/10 06:02:43;;;;;;;6.13;2.67;;;5.40;99.90;;;;;;5059821;28;20237;-68
2022/04/10 06:05:10;;;;;;;4.23;1.97;;;5.40;99.90;;;;;;5060269;28;20261;-68
2022/04/10 06:07:37;;;;;;;5.63;2.47;;;5.50;99.90;;;;;;5064660;28;20315;-69
2022/04/10 06:10:05;;;;;;;4.40;2.20;;;5.60;99.90;;;;;;5060795;28;20644;-68
2022/04/10 06:12:32;;;;;;;4.50;1.80;;;5.60;99.90;;;;;;5061449;28;20295;-68
2022/04/10 06:15:00;;;;;;;4.63;2.67;;;5.60;99.90;;;;;;5041815;28;20206;-68
2022/04/10 06:17:27;;;;;;;5.13;2.60;;;5.60;99.90;;;;;;5052786;28;20244;-69
2022/04/10 06:19:54;;;;;;;4.90;2.13;;;5.70;99.90;;;;;;5050560;28;20209;-68
2022/04/10 06:22:23;;;;;;;4.47;2.43;;;5.70;99.90;;;;;;5054233;28;20582;-71
2022/04/10 06:24:50;;;;;;;4.67;2.40;;;5.80;99.90;;;;;;5059295;28;20202;-68
2022/04/10 06:27:17;;;;;;;4.60;2.53;;;5.80;99.90;;;;;;5056406;28;20248;-68
2022/04/10 06:29:44;;;;;;;2.67;2.03;;;5.90;99.90;;;;;;5061050;28;20209;-68
2022/04/10 06:32:13;;;;;;;3.43;2.30;;;5.90;99.90;;;;;;5055146;28;20290;-70
2022/04/10 06:34:40;;;;;;;5.23;2.30;;;6.00;99.90;;;;;;5059027;28;20205;-70
2022/04/10 06:37:08;;;;;;;4.00;2.20;;;6.10;99.90;;;;;;5056073;28;20225;-67
2022/04/10 06:39:35;;;;;;;4.43;2.40;;;6.20;99.90;;;;;;5058629;28;20238;-68
2022/04/10 06:42:02;;;;;;;4.03;2.07;;;6.20;99.90;;;;;;5062909;28;20214;-68
2022/04/10 06:44:29;;;;;;;6.07;2.40;;;6.30;99.90;;;;;;5053756;28;20229;-69
2022/04/10 06:46:55;;;;;;;3.43;2.47;;;6.40;99.90;;;;;;5053621;28;20268;-68
2022/04/10 06:49:24;;;;;;;7.47;2.67;;;6.40;99.90;;;;;;5049641;28;20301;-68
2022/04/10 06:51:50;;;;;;;6.87;2.40;;;6.40;99.90;;;;;;5049583;28;20201;-69
2022/04/10 06:54:17;;;;;;;5.37;2.90;;;6.50;99.90;;;;;;5059958;28;20651;-71
2022/04/10 06:56:45;;;;;;;5.63;3.30;;;6.60;99.90;;;;;;5058898;28;20206;-70
2022/04/10 06:59:12;;;;;;;4.80;2.50;;;6.70;99.90;;;;;;5058672;28;20236;-69
2022/04/10 07:01:39;;;;;;;6.73;3.10;;;6.80;99.90;;;;;;5053876;28;20750;-70
2022/04/10 07:04:06;;;;;;;6.10;2.80;;;6.80;99.90;;;;;;5055489;28;20260;-70
2022/04/10 07:06:35;;;;;;;4.33;2.70;;;6.90;99.90;;;;;;5050186;28;20228;-71
2022/04/10 07:09:01;;;;;;;4.20;2.53;;;6.90;99.90;;;;;;5068697;28;20213;-70
2022/04/10 07:11:28;;;;;;;4.03;2.70;;;7.00;99.90;;;;;;5058083;28;20206;-71
2022/04/10 07:13:55;;;;;;;4.37;2.80;;;7.20;99.90;;;;;;5061273;28;20202;-71
2022/04/10 07:16:22;;;;;;;5.90;3.30;;;7.40;99.90;;;;;;5059672;28;20209;-71
2022/04/10 07:18:49;;;;;;;3.10;2.53;;;7.40;99.90;;;;;;5063531;28;20639;-70
2022/04/10 07:23:41;;;;;;;5.23;3.13;;;7.50;99.90;;;;;;5058245;28;20257;-72
2022/04/10 07:24:04;;;;;;;4.00;2.77;;;7.50;99.90;;;;;;5060970;28;20663;-72
2022/04/10 07:26:31;;;;;;;4.57;2.67;;;7.50;99.90;;;;;;5056988;28;20223;-72
2022/04/10 07:28:58;;;;;;;7.10;3.37;;;7.60;99.90;;;;;;5068291;28;20209;-74
2022/04/10 07:31:24;;;;;;;4.00;3.17;;;7.80;99.90;;;;;;5057574;28;20202;-71
2022/04/10 07:33:51;;;;;;;4.23;2.73;;;7.90;99.90;;;;;;5055638;28;20301;-68
2022/04/10 07:36:18;;;;;;;2.67;2.47;;;8.10;99.90;;;;;;5062546;28;20233;-70
2022/04/10 07:38:45;;;;;;;4.77;2.90;;;8.20;99.90;;;;;;5068045;28;20332;-68
2022/04/10 07:41:13;;;;;;;3.20;2.60;;;8.40;99.90;;;;;;5055743;28;20228;-66
2022/04/10 07:43:40;;;;;;;7.97;2.90;;;8.40;99.90;;;;;;5051520;28;20229;-65
2022/04/10 07:48:51;;;;;;;7.20;2.80;;;8.50;99.90;;;;;;5055540;28;20205;-68
2022/04/10 07:51:18;;;;;;;4.57;2.67;;;8.40;99.90;;;;;;5054711;28;20220;-64
2022/04/10 07:53:45;;;;;;;6.50;3.10;;;8.30;99.90;;;;;;5054489;28;20637;-67
2022/04/10 07:56:13;;;;;;;4.23;2.47;;;8.40;99.90;;;;;;5055086;28;20558;-70
2022/04/10 07:58:40;;;;;;;5.37;2.53;;;8.50;99.90;;;;;;5053809;28;20206;-64
2022/04/10 08:01:07;;;;;;;4.97;2.80;;;8.50;99.90;;;;;;5053064;28;20228;-64
2022/04/10 08:03:34;;;;;;;6.30;3.27;;;8.60;99.90;;;;;;5052711;28;20233;-67
2022/04/10 08:06:01;;;;;;;5.43;2.67;;;8.70;99.90;;;;;;5054274;28;20654;-68
2022/04/10 08:08:28;;;;;;;5.70;2.27;;;8.90;99.90;;;;;;5054806;28;20209;-69
2022/04/10 08:10:55;;;;;;;6.80;2.70;;;9.10;99.90;;;;;;5053869;28;20208;-68
2022/04/10 08:13:23;;;;;;;3.90;2.27;;;9.20;98.90;;;;;;5055575;28;20206;-69
2022/04/10 08:15:50;;;;;;;5.20;2.40;;;9.20;98.30;;;;;;5056997;28;20205;-68
2022/04/10 08:18:17;;;;;;;3.50;2.00;;;9.30;97.70;;;;;;5062845;28;20213;-68
2022/04/10 08:20:44;;;;;;;4.80;2.20;;;9.50;97.90;;;;;;5043461;28;20233;-69
2022/04/10 08:23:11;;;;;;;3.83;1.97;;;9.80;97.20;;;;;;5055023;28;20242;-69
2022/04/10 08:25:38;;;;;;;4.53;2.10;;;9.80;95.40;;;;;;5053349;28;20225;-69
2022/04/10 08:28:05;;;;;;;3.83;2.07;;;9.80;94.70;;;;;;5055701;28;20696;-68
2022/04/10 08:30:33;;;;;;;2.47;1.70;;;9.80;94.20;;;;;;5056208;28;20687;-69
2022/04/10 08:33:00;;;;;;;4.80;2.07;;;9.70;93.70;;;;;;5053727;28;20661;-68
2022/04/10 08:35:27;;;;;;;3.77;1.93;;;9.60;93.30;;;;;;5054112;28;20356;-67
2022/04/10 08:37:54;;;;;;;4.00;2.17;;;9.40;93.10;;;;;;5053537;28;20228;-68
2022/04/10 08:40:21;;;;;;;5.80;2.40;;;9.30;93.40;;;;;;5054196;28;20603;-67
2022/04/10 08:42:48;;;;;;;4.10;2.20;;;9.10;93.50;;;;;;5053900;28;20263;-68
2022/04/10 08:45:17;;;;;;;3.97;1.83;;;8.90;93.60;;;;;;5053392;28;20624;-68
2022/04/10 08:47:45;;;;;;;7.10;3.60;;;8.80;93.60;;;;;;5053851;28;20291;-68
2022/04/10 08:50:12;;;;;;;5.60;2.70;;;8.70;93.80;;;;;;5052210;28;20202;-67
2022/04/10 08:52:39;;;;;;;3.57;2.00;;;8.60;93.70;;;;;;5052569;28;20662;-69
2022/04/10 08:55:07;;;;;;;4.40;2.70;;;8.60;93.60;;;;;;5052924;28;20206;-69
2022/04/10 08:57:34;;;;;;;6.27;2.97;;;8.50;93.40;;;;;;5054389;28;20252;-68
2022/04/10 09:00:01;;;;;;;4.90;2.07;;;8.40;93.30;;;;;;5055145;28;20240;-68
2022/04/10 09:02:28;;;;;;;4.30;1.80;;;8.40;93.50;;;;;;5056807;28;20216;-69
2022/04/10 09:04:56;;;;;;;6.70;2.23;;;8.30;94.00;;;;;;5052596;28;20269;-69
2022/04/10 09:07:23;;;;;;;6.50;2.13;;;8.20;94.60;;;;;;5056411;28;20773;-68
2022/04/10 09:09:54;;;;;;;4.30;2.23;;;8.20;95.10;;;;;;5060074;28;20224;-68
2022/04/10 09:12:22;;;;;;;4.63;2.17;;;8.30;95.30;;;;;;5056846;28;20202;-68
2022/04/10 09:14:49;;;;;;;5.33;2.20;;;8.30;95.10;;;;;;5052877;28;20310;-67
2022/04/10 09:17:17;;;;;;;5.07;2.00;;;8.30;95.20;;;;;;5061713;28;20233;-68
2022/04/10 09:19:46;;;;;;;4.87;2.17;;;8.20;95.00;;;;;;5060070;28;20201;-68
2022/04/10 09:22:25;;;;;;;5.03;2.53;;;8.10;94.80;;;;;;5056378;28;20272;-69
2022/04/10 09:25:12;;;;;;;3.27;2.10;;;8.00;95.00;;;;;;5051396;28;20289;-69
2022/04/10 09:27:41;;;;;;;2.40;2.10;;;7.90;95.30;;;;;;5054973;28;20233;-66
2022/04/10 09:30:10;;;;;;;4.93;2.40;;;7.80;95.70;;;;;;5072119;28;20304;-67
2022/04/10 09:32:42;;;;;;;6.13;2.60;;;7.70;95.80;;;;;;5053298;28;20260;-68
2022/04/10 09:35:09;;;;;;;4.07;1.97;;;7.70;96.10;;;;;;5046298;28;20302;-68
2022/04/10 09:37:46;;;;;;;5.07;2.60;;;7.70;96.30;;;;;;5045169;28;20678;-67
2022/04/10 09:40:29;;;;;;;4.50;1.93;;;7.70;96.60;;;;;;5043031;28;20320;-68
2022/04/10 09:43:05;;;;;;;3.57;2.13;;;7.70;96.30;;;;;;5042417;28;20289;-63
2022/04/10 09:45:35;;;;;;;5.27;2.37;;;7.70;96.10;;;;;;5043230;28;20213;-66
2022/04/10 09:48:17;;;;;;;4.67;1.90;;;7.60;95.80;;;;;;5052174;28;20229;-67
2022/04/10 09:50:44;;;;;;;4.67;2.40;;;7.50;95.80;;;;;;5055637;28;20729;-67
2022/04/10 09:53:13;;;;;;;7.53;2.63;;;7.50;96.10;;;;;;5060023;28;20269;-70
2022/04/10 09:55:41;;;;;;;4.30;2.40;;;7.60;96.10;;;;;;5061490;28;20720;-67
2022/04/10 09:58:10;;;;;;;6.20;2.00;;;7.60;95.80;;;;;;5054546;28;20277;-68
2022/04/10 10:00:39;;;;;;;2.73;2.00;;;7.60;95.60;;;;;;5060059;28;20209;-67
2022/04/10 10:03:07;;;;;;;3.13;1.73;;;7.70;95.70;;;;;;5056639;28;20642;-66
2022/04/10 10:05:35;;;;;;;6.60;2.23;;;8.00;95.90;;;;;;5051297;28;20305;-66
2022/04/10 10:08:03;;;;;;;5.43;2.27;;;8.40;96.20;;;;;;5065249;28;20236;-66
2022/04/10 10:10:33;;;;;;;5.77;2.30;;;8.80;95.30;;;;;;5057340;28;20237;-67
2022/04/10 10:13:01;;;;;;;2.70;2.03;;;9.00;94.20;;;;;;5063841;28;20210;-66
2022/04/10 10:15:28;;;;;;;7.00;2.57;;;9.10;93.80;;;;;;5057031;28;20206;-67
2022/04/10 10:17:56;;;;;;;3.00;1.93;;;9.10;93.60;;;;;;5068323;28;20293;-67
2022/04/10 10:20:23;;;;;;;6.87;2.23;;;9.00;93.20;;;;;;5065706;28;20566;-67
2022/04/10 10:22:51;;;;;;;5.53;2.70;;;8.90;92.70;;;;;;5047859;28;20206;-66
2022/04/10 10:25:24;;;;;;;6.17;2.33;;;8.90;93.30;;;;;;5059521;28;20664;-67
2022/04/10 10:28:39;;;;;;;3.63;2.30;;;8.90;93.20;;;;;;5062843;28;20624;-67
2022/04/10 10:31:28;;;;;;;4.30;2.20;;;9.00;93.20;;;;;;5028754;28;20248;-67
2022/04/10 10:33:59;;;;;;;5.60;2.40;;;9.10;92.80;;;;;;5048264;28;20233;-68
2022/04/10 10:36:27;;;;;;;4.50;2.13;;;9.00;92.70;;;;;;5064206;28;20253;-67
2022/04/10 10:38:56;;;;;;;5.13;2.30;;;9.20;92.90;;;;;;5062907;28;20252;-66
2022/04/10 10:41:33;;;;;;;4.10;2.17;;;9.80;92.50;;;;;;5069101;28;20235;-66
2022/04/10 10:44:17;;;;;;;4.00;1.70;;;10.20;90.10;;;;;;5055268;28;20213;-67
2022/04/10 10:47:02;;;;;;;2.93;1.63;;;10.50;88.80;;;;;;5056013;28;20221;-67
2022/04/10 10:49:30;;;;;;;3.20;1.70;;;10.60;85.70;;;;;;5054277;28;20210;-66
2022/04/10 10:51:58;;;;;;;3.20;1.60;;;10.60;84.30;;;;;;5050011;28;20241;-68
2022/04/10 10:54:32;;;;;;;4.97;2.00;;;10.60;84.40;;;;;;5053736;28;20209;-67
2022/04/10 10:56:59;;;;;;;5.27;2.00;;;10.80;85.50;;;;;;5055773;28;20213;-68
2022/04/10 10:59:31;;;;;;;7.67;2.13;;;11.00;83.80;;;;;;5056077;28;20214;-67
2022/04/10 11:02:06;;;;;;;6.33;2.10;;;11.00;81.10;;;;;;5055542;28;20233;-67
2022/04/10 11:04:40;;;;;;;5.67;1.97;;;10.90;80.60;;;;;;5055909;28;20213;-66
2022/04/10 11:07:15;;;;;;;3.57;2.40;;;10.70;80.50;;;;;;5055081;28;20218;-67
2022/04/10 11:09:52;;;;;;;6.00;2.20;;;10.70;81.60;;;;;;5055150;28;20204;-67
2022/04/10 11:12:22;;;;;;;4.23;2.30;;;10.60;81.40;;;;;;5056609;28;20237;-67
2022/04/10 11:14:51;;;;;;;4.93;2.50;;;10.50;81.90;;;;;;5064986;28;20208;-65
2022/04/10 11:17:20;;;;;;;3.40;2.13;;;10.50;82.80;;;;;;5061395;28;20303;-66
2022/04/10 11:19:49;;;;;;;5.47;2.30;;;10.50;81.90;;;;;;5054527;28;20249;-66
2022/04/10 11:22:21;;;;;;;5.10;1.90;;;10.30;81.40;;;;;;5053854;28;20225;-66
2022/04/10 11:24:52;;;;;;;5.10;2.10;;;10.10;81.40;;;;;;5053329;28;20237;-66
2022/04/10 11:27:45;;;;;;;4.80;2.40;;;9.80;83.30;;;;;;5048730;28;20218;-66
2022/04/10 11:30:13;;;;;;;4.30;2.50;;;9.60;85.00;;;;;;5055827;28;20229;-67
2022/04/10 11:32:46;;;;;;;5.37;2.83;;;9.40;86.20;;;;;;5055151;28;20244;-67
2022/04/10 11:35:19;;;;;;;4.30;2.50;;;9.50;87.30;;;;;;5054433;28;20204;-67
2022/04/10 11:37:49;;;;;;;6.03;2.80;;;9.40;86.90;;;;;;5054638;28;20229;-66
2022/04/10 11:40:19;;;;;;;5.60;2.37;;;9.20;86.70;;;;;;5068939;28;20233;-67
2022/04/10 11:42:47;;;;;;;4.97;2.63;;;9.20;87.40;;;;;;5054339;28;20229;-66
2022/04/10 11:45:14;;;;;;;5.37;2.63;;;9.20;88.00;;;;;;5054790;28;20294;-66
2022/04/10 11:47:42;;;;;;;7.27;2.67;;;9.20;88.30;;;;;;5054944;28;20340;-67
2022/04/10 11:50:13;;;;;;;8.00;2.50;;;9.20;88.20;;;;;;5051918;28;20675;-66
2022/04/10 11:52:41;;;;;;;6.17;2.27;;;9.30;88.10;;;;;;5042086;28;20246;-67
2022/04/10 11:55:10;;;;;;;3.47;1.80;;;9.20;86.70;;;;;;5068783;28;20212;-66
2022/04/10 11:57:40;;;;;;;4.67;2.20;;;9.20;86.20;;;;;;5054846;28;20217;-67
2022/04/10 12:00:10;;;;;;;5.77;2.00;;;9.10;86.60;;;;;;5054626;28;20212;-65
2022/04/10 12:02:38;;;;;;;4.63;2.30;;;9.10;86.60;;;;;;5055239;28;20253;-66
2022/04/10 12:05:08;;;;;;;4.73;2.40;;;9.00;86.50;;;;;;5053771;28;20210;-66
2022/04/10 12:07:41;;;;;;;6.73;2.10;;;8.90;87.10;;;;;;5055375;28;20229;-67
2022/04/10 12:10:08;;;;;;;5.50;2.57;;;8.90;87.30;;;;;;5055434;28;20206;-68
2022/04/10 12:12:37;;;;;;;7.67;4.10;;;8.90;87.90;;;;;;5057471;28;20658;-67
2022/04/10 12:15:15;;;;;;;6.03;2.23;;;9.00;87.60;;;;;;5074462;28;20299;-68
2022/04/10 12:17:42;;;;;;;5.57;2.27;;;9.00;87.50;;;;;;5071372;28;20201;-67
2022/04/10 12:20:10;;;;;;;5.13;2.87;;;9.00;87.40;;;;;;5054039;28;20296;-67
2022/04/10 12:22:39;;;;;;;4.30;2.53;;;9.00;86.60;;;;;;5051666;28;20222;-66
2022/04/10 12:25:07;;;;;;;6.27;3.33;;;8.90;86.00;;;;;;5051484;28;20333;-67
2022/04/10 12:27:34;;;;;;;4.93;2.23;;;8.90;86.10;;;;;;5044449;28;20309;-67
2022/04/10 12:30:06;;;;;;;6.77;2.70;;;8.90;86.00;;;;;;5052504;28;20221;-68
2022/04/10 12:32:33;;;;;;;3.30;2.47;;;8.90;85.70;;;;;;5053467;28;20289;-67
2022/04/10 12:35:07;;;;;;;4.20;2.10;;;9.00;85.60;;;;;;5041671;28;20237;-67
2022/04/10 12:37:34;;;;;;;4.63;2.43;;;9.00;85.00;;;;;;5052374;28;20197;-69
2022/04/10 12:40:04;;;;;;;4.70;2.27;;;9.10;85.80;;;;;;5061817;28;20271;-66
2022/04/10 12:42:38;;;;;;;5.07;2.40;;;9.10;83.50;;;;;;5049372;28;20206;-69
2022/04/10 12:45:08;;;;;;;5.03;2.13;;;9.10;83.60;;;;;;5042601;28;20202;-70
2022/04/10 12:47:46;;;;;;;5.27;1.97;;;9.20;83.70;;;;;;5052967;28;20313;-69
2022/04/10 12:50:19;;;;;;;7.03;2.40;;;9.20;83.30;;;;;;5058083;28;20285;-69
2022/04/10 12:52:47;;;;;;;3.63;2.30;;;9.10;82.40;;;;;;5064482;28;20212;-70
2022/04/10 12:55:19;;;;;;;3.87;2.30;;;9.00;82.60;;;;;;5061407;28;20269;-67
2022/04/10 12:58:04;;;;;;;4.40;2.50;;;8.80;83.10;;;;;;5064657;28;20312;-69
2022/04/10 13:00:33;;;;;;;4.87;2.27;;;8.70;84.30;;;;;;5053804;28;20241;-68
2022/04/10 13:03:18;;;;;;;5.90;2.30;;;8.60;84.80;;;;;;5051314;28;20214;-67
2022/04/10 13:05:55;;;;;;;3.80;2.50;;;8.50;85.50;;;;;;5060746;28;20231;-68